sensor_id;sensor_type;location;lat;lon;timestamp;temperature;humidity
54178;DHT22;40085;53.004;6.770;2022-07-10T00:01:48;13.60;99.90
54178;DHT22;40085;53.004;6.770;2022-07-10T00:04:17;13.60;99.90
54178;DHT22;40085;53.004;6.770;2022-07-10T00:06:44;13.60;99.90
54178;DHT22;40085;53.004;6.770;2022-07-10T00:09:15;13.60;99.90
54178;DHT22;40085;53.004;6.770;2022-07-10T00:11:42;13.60;99.90
54178;DHT22;40085;53.004;6.770;2022-07-10T00:14:08;13.60;99.90
54178;DHT22;40085;53.004;6.770;2022-07-10T00:16:34;13.50;99.90
54178;DHT22;40085;53.004;6.770;2022-07-10T00:19:00;13.40;99.90
54178;DHT22;40085;53.004;6.770;2022-07-10T00:21:26;13.80;99.90
54178;DHT22;40085;53.004;6.770;2022-07-10T00:23:52;13.50;99.90
54178;DHT22;40085;53.004;6.770;2022-07-10T00:26:17;13.40;99.90
54178;DHT22;40085;53.004;6.770;2022-07-10T00:28:43;13.20;99.90
54178;DHT22;40085;53.004;6.770;2022-07-10T00:31:09;13.40;99.90
54178;DHT22;40085;53.004;6.770;2022-07-10T00:33:36;13.20;99.90
54178;DHT22;40085;53.004;6.770;2022-07-10T00:36:06;13.10;99.90
54178;DHT22;40085;53.004;6.770;2022-07-10T00:38:32;13.10;99.90
54178;DHT22;40085;53.004;6.770;2022-07-10T00:40:58;13.10;99.90
54178;DHT22;40085;53.004;6.770;2022-07-10T00:43:24;13.10;99.90
54178;DHT22;40085;53.004;6.770;2022-07-10T00:45:50;13.00;99.90
54178;DHT22;40085;53.004;6.770;2022-07-10T00:48:16;13.00;99.90
54178;DHT22;40085;53.004;6.770;2022-07-10T00:50:45;13.30;99.90
54178;DHT22;40085;53.004;6.770;2022-07-10T00:53:12;13.00;99.90
54178;DHT22;40085;53.004;6.770;2022-07-10T00:55:39;12.90;99.90
54178;DHT22;40085;53.004;6.770;2022-07-10T00:58:08;13.20;99.90
54178;DHT22;40085;53.004;6.770;2022-07-10T01:00:35;12.80;99.90
54178;DHT22;40085;53.004;6.770;2022-07-10T01:03:03;12.80;99.90
54178;DHT22;40085;53.004;6.770;2022-07-10T01:05:29;12.80;99.90
54178;DHT22;40085;53.004;6.770;2022-07-10T01:07:55;12.80;99.90
54178;DHT22;40085;53.004;6.770;2022-07-10T01:10:20;12.80;99.90
54178;DHT22;40085;53.004;6.770;2022-07-10T01:12:46;12.80;99.90
54178;DHT22;40085;53.004;6.770;2022-07-10T01:15:12;12.80;99.90
54178;DHT22;40085;53.004;6.770;2022-07-10T01:17:38;12.90;99.90
54178;DHT22;40085;53.004;6.770;2022-07-10T01:20:08;12.90;99.90
54178;DHT22;40085;53.004;6.770;2022-07-10T01:22:36;12.90;99.90
54178;DHT22;40085;53.004;6.770;2022-07-10T01:25:03;12.90;99.90
54178;DHT22;40085;53.004;6.770;2022-07-10T01:27:29;12.90;99.90
54178;DHT22;40085;53.004;6.770;2022-07-10T01:29:54;12.90;99.90
54178;DHT22;40085;53.004;6.770;2022-07-10T01:32:20;12.80;99.90
54178;DHT22;40085;53.004;6.770;2022-07-10T01:34:46;12.80;99.90
54178;DHT22;40085;53.004;6.770;2022-07-10T01:37:13;12.80;99.90
54178;DHT22;40085;53.004;6.770;2022-07-10T01:39:39;12.80;99.90
54178;DHT22;40085;53.004;6.770;2022-07-10T01:42:05;13.20;99.90
54178;DHT22;40085;53.004;6.770;2022-07-10T01:44:31;12.80;99.90
54178;DHT22;40085;53.004;6.770;2022-07-10T01:46:56;12.80;99.90
54178;DHT22;40085;53.004;6.770;2022-07-10T01:49:22;12.70;99.90
54178;DHT22;40085;53.004;6.770;2022-07-10T01:51:48;12.90;99.90
54178;DHT22;40085;53.004;6.770;2022-07-10T01:54:13;12.90;99.90
54178;DHT22;40085;53.004;6.770;2022-07-10T01:56:39;12.90;99.90
54178;DHT22;40085;53.004;6.770;2022-07-10T01:59:05;12.90;99.90
54178;DHT22;40085;53.004;6.770;2022-07-10T02:01:31;13.00;99.90
54178;DHT22;40085;53.004;6.770;2022-07-10T02:03:57;13.00;99.90
54178;DHT22;40085;53.004;6.770;2022-07-10T02:06:41;13.30;99.90
54178;DHT22;40085;53.004;6.770;2022-07-10T02:09:07;13.00;99.90
54178;DHT22;40085;53.004;6.770;2022-07-10T02:11:33;13.00;99.90
54178;DHT22;40085;53.004;6.770;2022-07-10T02:13:59;13.00;99.90
54178;DHT22;40085;53.004;6.770;2022-07-10T02:16:24;13.00;99.90
54178;DHT22;40085;53.004;6.770;2022-07-10T02:18:50;13.40;99.90
54178;DHT22;40085;53.004;6.770;2022-07-10T02:21:16;13.00;99.90
54178;DHT22;40085;53.004;6.770;2022-07-10T02:23:41;12.80;99.90
54178;DHT22;40085;53.004;6.770;2022-07-10T02:26:07;12.90;99.90
54178;DHT22;40085;53.004;6.770;2022-07-10T02:28:33;12.80;99.90
54178;DHT22;40085;53.004;6.770;2022-07-10T02:30:59;13.10;99.90
54178;DHT22;40085;53.004;6.770;2022-07-10T02:33:25;12.80;99.90
54178;DHT22;40085;53.004;6.770;2022-07-10T02:35:50;12.70;99.90
54178;DHT22;40085;53.004;6.770;2022-07-10T02:38:16;12.70;99.90
54178;DHT22;40085;53.004;6.770;2022-07-10T02:40:42;12.60;99.90
54178;DHT22;40085;53.004;6.770;2022-07-10T02:43:07;12.60;99.90
54178;DHT22;40085;53.004;6.770;2022-07-10T02:45:33;12.60;99.90
54178;DHT22;40085;53.004;6.770;2022-07-10T02:47:59;12.60;99.90
54178;DHT22;40085;53.004;6.770;2022-07-10T02:50:24;12.70;99.90
54178;DHT22;40085;53.004;6.770;2022-07-10T02:52:50;12.50;99.90
54178;DHT22;40085;53.004;6.770;2022-07-10T02:55:16;12.50;99.90
54178;DHT22;40085;53.004;6.770;2022-07-10T02:57:41;12.40;99.90
54178;DHT22;40085;53.004;6.770;2022-07-10T03:00:07;12.40;99.90
54178;DHT22;40085;53.004;6.770;2022-07-10T03:02:33;12.30;99.90
54178;DHT22;40085;53.004;6.770;2022-07-10T03:04:59;12.30;99.90
54178;DHT22;40085;53.004;6.770;2022-07-10T03:07:25;12.30;99.90
54178;DHT22;40085;53.004;6.770;2022-07-10T03:09:50;12.30;99.90
54178;DHT22;40085;53.004;6.770;2022-07-10T03:12:16;12.20;99.90
54178;DHT22;40085;53.004;6.770;2022-07-10T03:14:41;12.20;99.90
54178;DHT22;40085;53.004;6.770;2022-07-10T03:17:07;12.20;99.90
54178;DHT22;40085;53.004;6.770;2022-07-10T03:19:33;12.30;99.90
54178;DHT22;40085;53.004;6.770;2022-07-10T03:21:59;12.20;99.90
54178;DHT22;40085;53.004;6.770;2022-07-10T03:24:25;12.10;99.90
54178;DHT22;40085;53.004;6.770;2022-07-10T03:26:50;12.30;99.90
54178;DHT22;40085;53.004;6.770;2022-07-10T03:29:16;12.30;99.90
54178;DHT22;40085;53.004;6.770;2022-07-10T03:31:42;12.30;99.90
54178;DHT22;40085;53.004;6.770;2022-07-10T03:34:08;12.30;99.90
54178;DHT22;40085;53.004;6.770;2022-07-10T03:36:34;12.40;99.90
54178;DHT22;40085;53.004;6.770;2022-07-10T03:38:59;12.40;99.90
54178;DHT22;40085;53.004;6.770;2022-07-10T03:41:25;12.40;99.90
54178;DHT22;40085;53.004;6.770;2022-07-10T03:43:50;12.50;99.90
54178;DHT22;40085;53.004;6.770;2022-07-10T03:46:16;12.50;99.90
54178;DHT22;40085;53.004;6.770;2022-07-10T03:48:42;12.60;99.90
54178;DHT22;40085;53.004;6.770;2022-07-10T03:51:07;12.60;99.90
54178;DHT22;40085;53.004;6.770;2022-07-10T03:53:33;12.70;99.90
54178;DHT22;40085;53.004;6.770;2022-07-10T03:55:59;12.70;99.90
54178;DHT22;40085;53.004;6.770;2022-07-10T03:58:26;12.70;99.90
54178;DHT22;40085;53.004;6.770;2022-07-10T04:00:52;12.70;99.90
54178;DHT22;40085;53.004;6.770;2022-07-10T04:03:17;12.80;99.90
54178;DHT22;40085;53.004;6.770;2022-07-10T04:05:43;12.80;99.90
54178;DHT22;40085;53.004;6.770;2022-07-10T04:08:09;12.80;99.90
54178;DHT22;40085;53.004;6.770;2022-07-10T04:10:35;12.80;99.90
54178;DHT22;40085;53.004;6.770;2022-07-10T04:13:01;12.90;99.90
54178;DHT22;40085;53.004;6.770;2022-07-10T04:15:28;12.90;99.90
54178;DHT22;40085;53.004;6.770;2022-07-10T04:17:54;12.90;99.90
54178;DHT22;40085;53.004;6.770;2022-07-10T04:20:20;13.70;99.90
54178;DHT22;40085;53.004;6.770;2022-07-10T04:22:46;12.90;99.90
54178;DHT22;40085;53.004;6.770;2022-07-10T04:25:12;13.40;99.90
54178;DHT22;40085;53.004;6.770;2022-07-10T04:27:38;13.00;99.90
54178;DHT22;40085;53.004;6.770;2022-07-10T04:30:04;13.00;99.90
54178;DHT22;40085;53.004;6.770;2022-07-10T04:32:31;13.00;99.90
54178;DHT22;40085;53.004;6.770;2022-07-10T04:34:57;13.10;99.90
54178;DHT22;40085;53.004;6.770;2022-07-10T04:37:22;13.40;99.90
54178;DHT22;40085;53.004;6.770;2022-07-10T04:39:48;13.10;99.90
54178;DHT22;40085;53.004;6.770;2022-07-10T04:42:14;13.10;99.90
54178;DHT22;40085;53.004;6.770;2022-07-10T04:44:40;13.20;99.90
54178;DHT22;40085;53.004;6.770;2022-07-10T04:47:06;13.50;99.90
54178;DHT22;40085;53.004;6.770;2022-07-10T04:49:32;13.20;99.90
54178;DHT22;40085;53.004;6.770;2022-07-10T04:51:58;13.30;99.90
54178;DHT22;40085;53.004;6.770;2022-07-10T04:54:24;13.30;99.90
54178;DHT22;40085;53.004;6.770;2022-07-10T04:56:49;13.60;99.90
54178;DHT22;40085;53.004;6.770;2022-07-10T04:59:15;13.40;99.90
54178;DHT22;40085;53.004;6.770;2022-07-10T05:01:41;13.40;99.90
54178;DHT22;40085;53.004;6.770;2022-07-10T05:04:06;13.50;99.90
54178;DHT22;40085;53.004;6.770;2022-07-10T05:06:32;14.00;99.90
54178;DHT22;40085;53.004;6.770;2022-07-10T05:08:58;13.60;99.90
54178;DHT22;40085;53.004;6.770;2022-07-10T05:11:25;13.60;99.90
54178;DHT22;40085;53.004;6.770;2022-07-10T05:13:51;13.60;99.90
54178;DHT22;40085;53.004;6.770;2022-07-10T05:16:17;13.70;99.90
54178;DHT22;40085;53.004;6.770;2022-07-10T05:18:43;13.80;99.90
54178;DHT22;40085;53.004;6.770;2022-07-10T05:21:09;13.80;99.90
54178;DHT22;40085;53.004;6.770;2022-07-10T05:23:36;13.90;99.90
54178;DHT22;40085;53.004;6.770;2022-07-10T05:26:02;13.90;99.90
54178;DHT22;40085;53.004;6.770;2022-07-10T05:28:27;14.00;99.90
54178;DHT22;40085;53.004;6.770;2022-07-10T05:30:53;14.00;99.90
54178;DHT22;40085;53.004;6.770;2022-07-10T05:33:19;14.20;99.90
54178;DHT22;40085;53.004;6.770;2022-07-10T05:35:45;14.20;99.90
54178;DHT22;40085;53.004;6.770;2022-07-10T05:38:10;14.40;99.90
54178;DHT22;40085;53.004;6.770;2022-07-10T05:40:36;14.30;99.90
54178;DHT22;40085;53.004;6.770;2022-07-10T05:43:02;14.40;99.90
54178;DHT22;40085;53.004;6.770;2022-07-10T05:45:28;14.40;99.90
54178;DHT22;40085;53.004;6.770;2022-07-10T05:47:53;14.50;99.90
54178;DHT22;40085;53.004;6.770;2022-07-10T05:50:19;14.80;99.90
54178;DHT22;40085;53.004;6.770;2022-07-10T05:52:45;14.60;99.90
54178;DHT22;40085;53.004;6.770;2022-07-10T05:55:10;14.80;99.90
54178;DHT22;40085;53.004;6.770;2022-07-10T06:00:04;14.90;99.90
54178;DHT22;40085;53.004;6.770;2022-07-10T06:02:31;15.00;99.90
54178;DHT22;40085;53.004;6.770;2022-07-10T06:04:56;15.00;99.90
54178;DHT22;40085;53.004;6.770;2022-07-10T06:07:22;15.00;99.90
54178;DHT22;40085;53.004;6.770;2022-07-10T06:09:48;15.10;99.90
54178;DHT22;40085;53.004;6.770;2022-07-10T06:12:14;15.20;99.90
54178;DHT22;40085;53.004;6.770;2022-07-10T06:14:41;15.60;99.90
54178;DHT22;40085;53.004;6.770;2022-07-10T06:17:07;15.20;99.90
54178;DHT22;40085;53.004;6.770;2022-07-10T06:19:33;15.30;99.90
54178;DHT22;40085;53.004;6.770;2022-07-10T06:21:58;15.30;99.90
54178;DHT22;40085;53.004;6.770;2022-07-10T06:24:42;15.40;99.90
54178;DHT22;40085;53.004;6.770;2022-07-10T06:27:08;15.40;99.90
54178;DHT22;40085;53.004;6.770;2022-07-10T06:29:34;15.40;99.90
54178;DHT22;40085;53.004;6.770;2022-07-10T06:32:00;15.40;99.90
54178;DHT22;40085;53.004;6.770;2022-07-10T06:34:25;15.30;99.90
54178;DHT22;40085;53.004;6.770;2022-07-10T06:36:51;15.30;99.90
54178;DHT22;40085;53.004;6.770;2022-07-10T06:39:17;15.50;99.90
54178;DHT22;40085;53.004;6.770;2022-07-10T06:41:42;15.20;99.90
54178;DHT22;40085;53.004;6.770;2022-07-10T06:44:08;15.30;99.90
54178;DHT22;40085;53.004;6.770;2022-07-10T06:46:34;15.30;99.90
54178;DHT22;40085;53.004;6.770;2022-07-10T06:49:00;15.20;99.90
54178;DHT22;40085;53.004;6.770;2022-07-10T06:51:26;15.00;99.90
54178;DHT22;40085;53.004;6.770;2022-07-10T06:53:52;14.90;99.90
54178;DHT22;40085;53.004;6.770;2022-07-10T06:56:18;15.00;99.90
54178;DHT22;40085;53.004;6.770;2022-07-10T06:58:44;15.00;99.90
54178;DHT22;40085;53.004;6.770;2022-07-10T07:01:10;15.00;99.90
54178;DHT22;40085;53.004;6.770;2022-07-10T07:03:36;15.10;99.90
54178;DHT22;40085;53.004;6.770;2022-07-10T07:06:01;15.10;99.90
54178;DHT22;40085;53.004;6.770;2022-07-10T07:08:31;15.10;99.90
54178;DHT22;40085;53.004;6.770;2022-07-10T07:10:56;15.00;99.90
54178;DHT22;40085;53.004;6.770;2022-07-10T07:13:23;15.00;99.90
54178;DHT22;40085;53.004;6.770;2022-07-10T07:15:49;15.00;99.90
54178;DHT22;40085;53.004;6.770;2022-07-10T07:18:35;15.00;99.90
54178;DHT22;40085;53.004;6.770;2022-07-10T07:21:02;14.90;99.90
54178;DHT22;40085;53.004;6.770;2022-07-10T07:23:47;14.90;99.90
54178;DHT22;40085;53.004;6.770;2022-07-10T07:26:13;14.90;99.90
54178;DHT22;40085;53.004;6.770;2022-07-10T07:28:38;14.90;99.90
54178;DHT22;40085;53.004;6.770;2022-07-10T07:31:04;15.00;99.90
54178;DHT22;40085;53.004;6.770;2022-07-10T07:33:30;15.00;99.90
54178;DHT22;40085;53.004;6.770;2022-07-10T07:35:56;15.10;99.90
54178;DHT22;40085;53.004;6.770;2022-07-10T07:38:22;15.20;99.90
54178;DHT22;40085;53.004;6.770;2022-07-10T07:40:47;15.30;99.90
54178;DHT22;40085;53.004;6.770;2022-07-10T07:43:13;15.50;99.90
54178;DHT22;40085;53.004;6.770;2022-07-10T07:45:39;15.60;99.90
54178;DHT22;40085;53.004;6.770;2022-07-10T07:48:05;15.80;99.90
54178;DHT22;40085;53.004;6.770;2022-07-10T07:50:32;15.90;99.90
54178;DHT22;40085;53.004;6.770;2022-07-10T07:52:59;16.10;99.90
54178;DHT22;40085;53.004;6.770;2022-07-10T07:55:25;16.20;99.90
54178;DHT22;40085;53.004;6.770;2022-07-10T07:57:52;16.20;99.90
54178;DHT22;40085;53.004;6.770;2022-07-10T08:00:23;16.10;99.90
54178;DHT22;40085;53.004;6.770;2022-07-10T08:02:50;16.00;99.90
54178;DHT22;40085;53.004;6.770;2022-07-10T08:05:17;16.00;99.90
54178;DHT22;40085;53.004;6.770;2022-07-10T08:10:15;15.80;99.90
54178;DHT22;40085;53.004;6.770;2022-07-10T08:12:42;15.70;99.90
54178;DHT22;40085;53.004;6.770;2022-07-10T08:15:09;15.70;99.90
54178;DHT22;40085;53.004;6.770;2022-07-10T08:17:35;15.70;99.90
54178;DHT22;40085;53.004;6.770;2022-07-10T08:20:05;15.70;99.90
54178;DHT22;40085;53.004;6.770;2022-07-10T08:22:32;15.70;99.90
54178;DHT22;40085;53.004;6.770;2022-07-10T08:24:58;15.80;99.90
54178;DHT22;40085;53.004;6.770;2022-07-10T08:27:24;16.00;99.90
54178;DHT22;40085;53.004;6.770;2022-07-10T08:29:50;16.20;99.90
54178;DHT22;40085;53.004;6.770;2022-07-10T08:32:15;16.20;99.90
54178;DHT22;40085;53.004;6.770;2022-07-10T08:34:41;16.30;99.90
54178;DHT22;40085;53.004;6.770;2022-07-10T08:37:07;16.30;99.90
54178;DHT22;40085;53.004;6.770;2022-07-10T08:39:33;16.40;99.90
54178;DHT22;40085;53.004;6.770;2022-07-10T08:41:59;16.40;99.90
54178;DHT22;40085;53.004;6.770;2022-07-10T08:44:27;16.40;99.90
54178;DHT22;40085;53.004;6.770;2022-07-10T08:46:54;16.40;99.90
54178;DHT22;40085;53.004;6.770;2022-07-10T08:49:27;16.40;99.90
54178;DHT22;40085;53.004;6.770;2022-07-10T08:51:56;16.50;99.90
54178;DHT22;40085;53.004;6.770;2022-07-10T08:54:23;16.40;99.90
54178;DHT22;40085;53.004;6.770;2022-07-10T08:56:49;16.30;99.90
54178;DHT22;40085;53.004;6.770;2022-07-10T08:59:17;16.30;99.90
54178;DHT22;40085;53.004;6.770;2022-07-10T09:01:43;16.40;99.90
54178;DHT22;40085;53.004;6.770;2022-07-10T09:04:17;16.50;99.90
54178;DHT22;40085;53.004;6.770;2022-07-10T09:06:44;16.60;99.90
54178;DHT22;40085;53.004;6.770;2022-07-10T09:09:10;16.70;99.90
54178;DHT22;40085;53.004;6.770;2022-07-10T09:11:38;16.80;99.90
54178;DHT22;40085;53.004;6.770;2022-07-10T09:14:08;16.90;99.90
54178;DHT22;40085;53.004;6.770;2022-07-10T09:16:35;16.90;99.90
54178;DHT22;40085;53.004;6.770;2022-07-10T09:19:20;16.90;99.90
54178;DHT22;40085;53.004;6.770;2022-07-10T09:21:48;16.90;99.90
54178;DHT22;40085;53.004;6.770;2022-07-10T09:24:14;16.80;99.90
54178;DHT22;40085;53.004;6.770;2022-07-10T09:26:43;16.70;99.90
54178;DHT22;40085;53.004;6.770;2022-07-10T09:29:13;16.60;99.90
54178;DHT22;40085;53.004;6.770;2022-07-10T09:31:53;16.60;99.90
54178;DHT22;40085;53.004;6.770;2022-07-10T09:42:29;16.50;99.90
54178;DHT22;40085;53.004;6.770;2022-07-10T09:45:15;16.50;99.90
54178;DHT22;40085;53.004;6.770;2022-07-10T09:47:55;16.60;99.90
54178;DHT22;40085;53.004;6.770;2022-07-10T09:50:27;16.50;99.90
54178;DHT22;40085;53.004;6.770;2022-07-10T09:52:56;16.40;99.90
54178;DHT22;40085;53.004;6.770;2022-07-10T09:55:24;16.30;99.90
54178;DHT22;40085;53.004;6.770;2022-07-10T09:58:10;16.20;99.90
54178;DHT22;40085;53.004;6.770;2022-07-10T10:00:36;16.20;99.90
54178;DHT22;40085;53.004;6.770;2022-07-10T10:03:06;16.30;99.90
54178;DHT22;40085;53.004;6.770;2022-07-10T10:05:39;16.30;99.90
54178;DHT22;40085;53.004;6.770;2022-07-10T10:08:25;16.30;99.90
54178;DHT22;40085;53.004;6.770;2022-07-10T10:10:53;16.30;99.90
54178;DHT22;40085;53.004;6.770;2022-07-10T10:13:23;16.30;99.90
54178;DHT22;40085;53.004;6.770;2022-07-10T10:15:50;16.20;99.90
54178;DHT22;40085;53.004;6.770;2022-07-10T10:18:18;16.10;99.90
54178;DHT22;40085;53.004;6.770;2022-07-10T10:20:46;16.00;99.90
54178;DHT22;40085;53.004;6.770;2022-07-10T10:23:15;16.10;99.90
54178;DHT22;40085;53.004;6.770;2022-07-10T10:25:46;16.00;99.90
54178;DHT22;40085;53.004;6.770;2022-07-10T10:28:13;16.10;99.90
54178;DHT22;40085;53.004;6.770;2022-07-10T10:30:42;16.10;99.90
54178;DHT22;40085;53.004;6.770;2022-07-10T10:46:32;16.40;99.90
54178;DHT22;40085;53.004;6.770;2022-07-10T10:49:05;16.50;99.90
54178;DHT22;40085;53.004;6.770;2022-07-10T10:54:26;16.60;99.90
54178;DHT22;40085;53.004;6.770;2022-07-10T10:57:15;16.80;99.90
54178;DHT22;40085;53.004;6.770;2022-07-10T10:59:59;16.90;99.90
54178;DHT22;40085;53.004;6.770;2022-07-10T11:02:26;17.00;99.90
54178;DHT22;40085;53.004;6.770;2022-07-10T11:05:38;17.10;99.90
54178;DHT22;40085;53.004;6.770;2022-07-10T11:07:58;17.00;99.90
54178;DHT22;40085;53.004;6.770;2022-07-10T11:10:35;16.90;99.90
54178;DHT22;40085;53.004;6.770;2022-07-10T11:13:12;16.70;99.90
54178;DHT22;40085;53.004;6.770;2022-07-10T11:15:46;16.70;99.90
54178;DHT22;40085;53.004;6.770;2022-07-10T11:18:14;16.80;99.90
54178;DHT22;40085;53.004;6.770;2022-07-10T11:20:45;16.80;99.90
54178;DHT22;40085;53.004;6.770;2022-07-10T11:25:42;16.90;99.90
54178;DHT22;40085;53.004;6.770;2022-07-10T11:28:22;16.90;99.90
54178;DHT22;40085;53.004;6.770;2022-07-10T11:30:54;16.80;99.90
54178;DHT22;40085;53.004;6.770;2022-07-10T11:33:21;16.80;99.90
54178;DHT22;40085;53.004;6.770;2022-07-10T11:35:49;16.70;99.90
54178;DHT22;40085;53.004;6.770;2022-07-10T11:38:23;16.70;99.90
54178;DHT22;40085;53.004;6.770;2022-07-10T11:40:49;16.60;99.90
54178;DHT22;40085;53.004;6.770;2022-07-10T11:43:15;16.60;99.90
54178;DHT22;40085;53.004;6.770;2022-07-10T11:45:43;16.70;99.90
54178;DHT22;40085;53.004;6.770;2022-07-10T11:48:20;16.90;99.90
54178;DHT22;40085;53.004;6.770;2022-07-10T11:50:47;17.20;99.90
54178;DHT22;40085;53.004;6.770;2022-07-10T11:53:13;17.40;99.90
54178;DHT22;40085;53.004;6.770;2022-07-10T11:55:38;17.50;99.90
54178;DHT22;40085;53.004;6.770;2022-07-10T11:58:19;17.50;99.90
54178;DHT22;40085;53.004;6.770;2022-07-10T12:01:03;17.50;99.90
54178;DHT22;40085;53.004;6.770;2022-07-10T12:03:32;17.50;99.90
54178;DHT22;40085;53.004;6.770;2022-07-10T12:06:02;17.40;99.90
54178;DHT22;40085;53.004;6.770;2022-07-10T12:08:28;17.30;99.90
54178;DHT22;40085;53.004;6.770;2022-07-10T12:10:54;17.10;99.90
54178;DHT22;40085;53.004;6.770;2022-07-10T12:13:19;17.10;99.90
54178;DHT22;40085;53.004;6.770;2022-07-10T12:15:46;17.10;99.90
54178;DHT22;40085;53.004;6.770;2022-07-10T12:18:16;17.20;99.90
54178;DHT22;40085;53.004;6.770;2022-07-10T12:20:43;17.20;99.90
54178;DHT22;40085;53.004;6.770;2022-07-10T12:23:17;17.40;99.90
54178;DHT22;40085;53.004;6.770;2022-07-10T12:25:44;17.40;99.90
54178;DHT22;40085;53.004;6.770;2022-07-10T12:28:10;17.40;99.90
54178;DHT22;40085;53.004;6.770;2022-07-10T12:30:42;17.20;99.90
54178;DHT22;40085;53.004;6.770;2022-07-10T12:33:12;17.00;99.90
54178;DHT22;40085;53.004;6.770;2022-07-10T12:35:51;17.00;99.90
54178;DHT22;40085;53.004;6.770;2022-07-10T12:38:22;16.90;99.90
54178;DHT22;40085;53.004;6.770;2022-07-10T12:40:49;16.90;99.90
54178;DHT22;40085;53.004;6.770;2022-07-10T12:43:25;16.90;99.90
54178;DHT22;40085;53.004;6.770;2022-07-10T12:46:18;16.90;99.90
54178;DHT22;40085;53.004;6.770;2022-07-10T12:49:09;16.90;99.90
54178;DHT22;40085;53.004;6.770;2022-07-10T12:51:47;16.90;99.90
54178;DHT22;40085;53.004;6.770;2022-07-10T12:54:36;16.80;99.90
54178;DHT22;40085;53.004;6.770;2022-07-10T12:57:04;16.80;99.90
54178;DHT22;40085;53.004;6.770;2022-07-10T12:59:35;16.80;99.90
54178;DHT22;40085;53.004;6.770;2022-07-10T13:02:18;16.80;99.90
54178;DHT22;40085;53.004;6.770;2022-07-10T13:04:56;16.90;99.90
54178;DHT22;40085;53.004;6.770;2022-07-10T13:07:35;17.00;99.90
54178;DHT22;40085;53.004;6.770;2022-07-10T13:10:03;16.90;99.90
54178;DHT22;40085;53.004;6.770;2022-07-10T13:12:29;16.90;99.90
54178;DHT22;40085;53.004;6.770;2022-07-10T13:14:55;16.80;99.90
54178;DHT22;40085;53.004;6.770;2022-07-10T13:17:21;16.80;99.90
54178;DHT22;40085;53.004;6.770;2022-07-10T13:19:47;16.90;99.90
54178;DHT22;40085;53.004;6.770;2022-07-10T13:22:12;16.90;99.90
54178;DHT22;40085;53.004;6.770;2022-07-10T13:24:38;16.80;99.90
54178;DHT22;40085;53.004;6.770;2022-07-10T13:27:04;16.80;99.90
54178;DHT22;40085;53.004;6.770;2022-07-10T13:29:30;16.70;99.90
54178;DHT22;40085;53.004;6.770;2022-07-10T13:31:56;16.60;99.90
54178;DHT22;40085;53.004;6.770;2022-07-10T13:34:21;16.50;99.90
54178;DHT22;40085;53.004;6.770;2022-07-10T13:36:47;16.40;99.90
54178;DHT22;40085;53.004;6.770;2022-07-10T13:39:13;16.40;99.90
54178;DHT22;40085;53.004;6.770;2022-07-10T13:41:39;16.30;99.90
54178;DHT22;40085;53.004;6.770;2022-07-10T13:44:05;16.30;99.90
54178;DHT22;40085;53.004;6.770;2022-07-10T13:46:30;16.20;99.90
54178;DHT22;40085;53.004;6.770;2022-07-10T13:48:56;16.30;99.90
54178;DHT22;40085;53.004;6.770;2022-07-10T13:51:22;16.30;99.90
54178;DHT22;40085;53.004;6.770;2022-07-10T13:53:48;16.40;99.90
54178;DHT22;40085;53.004;6.770;2022-07-10T13:56:14;16.40;99.90
54178;DHT22;40085;53.004;6.770;2022-07-10T13:58:39;16.40;99.90
54178;DHT22;40085;53.004;6.770;2022-07-10T14:01:05;16.50;99.90
54178;DHT22;40085;53.004;6.770;2022-07-10T14:03:31;16.40;99.90
54178;DHT22;40085;53.004;6.770;2022-07-10T14:05:57;16.60;99.90
54178;DHT22;40085;53.004;6.770;2022-07-10T14:08:23;16.50;99.90
54178;DHT22;40085;53.004;6.770;2022-07-10T14:10:49;16.90;99.90
54178;DHT22;40085;53.004;6.770;2022-07-10T14:13:15;16.50;99.90
54178;DHT22;40085;53.004;6.770;2022-07-10T14:15:41;16.50;99.90
54178;DHT22;40085;53.004;6.770;2022-07-10T14:18:10;16.60;99.90
54178;DHT22;40085;53.004;6.770;2022-07-10T14:20:36;16.50;99.90
54178;DHT22;40085;53.004;6.770;2022-07-10T14:23:20;16.50;99.90
54178;DHT22;40085;53.004;6.770;2022-07-10T14:25:46;16.50;99.90
54178;DHT22;40085;53.004;6.770;2022-07-10T14:28:12;16.40;99.90
54178;DHT22;40085;53.004;6.770;2022-07-10T14:30:42;16.40;99.90
54178;DHT22;40085;53.004;6.770;2022-07-10T14:33:09;16.30;99.90
54178;DHT22;40085;53.004;6.770;2022-07-10T14:35:34;16.40;99.90
54178;DHT22;40085;53.004;6.770;2022-07-10T14:38:00;16.40;99.90
54178;DHT22;40085;53.004;6.770;2022-07-10T14:40:26;16.50;99.90
54178;DHT22;40085;53.004;6.770;2022-07-10T14:42:52;16.60;99.90
54178;DHT22;40085;53.004;6.770;2022-07-10T14:45:17;16.70;99.90
54178;DHT22;40085;53.004;6.770;2022-07-10T14:47:44;16.90;99.90
54178;DHT22;40085;53.004;6.770;2022-07-10T14:50:09;17.00;99.90
54178;DHT22;40085;53.004;6.770;2022-07-10T14:52:35;17.20;99.90
54178;DHT22;40085;53.004;6.770;2022-07-10T14:55:03;17.20;99.90
54178;DHT22;40085;53.004;6.770;2022-07-10T14:57:31;17.20;99.90
54178;DHT22;40085;53.004;6.770;2022-07-10T14:59:57;17.20;99.90
54178;DHT22;40085;53.004;6.770;2022-07-10T15:02:23;17.20;99.90
54178;DHT22;40085;53.004;6.770;2022-07-10T15:04:48;17.20;99.90
54178;DHT22;40085;53.004;6.770;2022-07-10T15:07:14;17.20;99.90
54178;DHT22;40085;53.004;6.770;2022-07-10T15:09:46;17.20;99.90
54178;DHT22;40085;53.004;6.770;2022-07-10T15:12:12;17.20;99.90
54178;DHT22;40085;53.004;6.770;2022-07-10T15:14:38;17.40;99.90
54178;DHT22;40085;53.004;6.770;2022-07-10T15:17:04;17.30;99.90
54178;DHT22;40085;53.004;6.770;2022-07-10T15:19:30;17.30;99.90
54178;DHT22;40085;53.004;6.770;2022-07-10T15:21:56;17.40;99.90
54178;DHT22;40085;53.004;6.770;2022-07-10T15:24:22;17.50;99.90
54178;DHT22;40085;53.004;6.770;2022-07-10T15:26:48;17.60;99.90
54178;DHT22;40085;53.004;6.770;2022-07-10T15:29:14;17.60;99.90
54178;DHT22;40085;53.004;6.770;2022-07-10T15:31:40;17.90;99.90
54178;DHT22;40085;53.004;6.770;2022-07-10T15:34:10;17.80;99.90
54178;DHT22;40085;53.004;6.770;2022-07-10T15:36:39;17.90;99.90
54178;DHT22;40085;53.004;6.770;2022-07-10T15:39:05;18.00;99.90
54178;DHT22;40085;53.004;6.770;2022-07-10T15:41:31;18.30;99.90
54178;DHT22;40085;53.004;6.770;2022-07-10T15:43:59;18.40;99.90
54178;DHT22;40085;53.004;6.770;2022-07-10T15:58:36;18.10;99.90
54178;DHT22;40085;53.004;6.770;2022-07-10T16:01:01;18.20;99.90
54178;DHT22;40085;53.004;6.770;2022-07-10T16:03:27;18.10;99.90
54178;DHT22;40085;53.004;6.770;2022-07-10T16:05:53;18.10;99.90
54178;DHT22;40085;53.004;6.770;2022-07-10T16:08:19;18.00;99.90
54178;DHT22;40085;53.004;6.770;2022-07-10T16:10:47;18.00;99.90
54178;DHT22;40085;53.004;6.770;2022-07-10T16:13:14;18.00;99.90
54178;DHT22;40085;53.004;6.770;2022-07-10T16:15:39;18.10;99.90
54178;DHT22;40085;53.004;6.770;2022-07-10T16:18:05;17.90;99.90